Time;durP1;ratioP1;P1;durP2;ratioP2;P2;SDS_P1;SDS_P2;PMS_P1;PMS_P2;Temp;Humidity;BMP_temperature;BMP_pressure;BME280_temperature;BME280_humidity;BME280_pressure;Samples;Min_cycle;Max_cycle;Signal;HPM_P1;HPM_P2
2023/01/09 01:36:41;;;;;;;4.88;4.40;;;;;;;6.02;100.00;94803.16;5058427;28;20555;-67
2023/01/09 01:39:06;;;;;;;4.32;3.92;;;;;;;6.20;100.00;94809.53;5086962;28;20032;-67
2023/01/09 01:41:31;;;;;;;3.20;3.00;;;;;;;6.09;100.00;94808.69;5067294;28;20417;-67
2023/01/09 01:44:04;;;;;;;2.10;2.00;;;;;;;6.01;100.00;94826.84;5087262;28;20090;-67
2023/01/09 01:46:31;;;;;;;1.83;1.73;;;;;;;5.82;100.00;94830.19;5083154;28;20044;-61
2023/01/09 01:49:09;;;;;;;3.45;2.60;;;;;;;5.80;100.00;94839.94;5088326;28;20036;-60
2023/01/09 01:51:38;;;;;;;2.40;2.30;;;;;;;5.68;100.00;94858.34;5078345;28;20112;-61
2023/01/09 01:54:08;;;;;;;2.47;2.38;;;;;;;5.61;100.00;94869.44;5084292;28;20032;-61
2023/01/09 01:56:41;;;;;;;2.47;2.28;;;;;;;5.52;100.00;94876.28;5085749;28;20137;-61
2023/01/09 01:59:16;;;;;;;2.20;2.00;;;;;;;5.51;100.00;94869.41;5075045;28;20032;-61
2023/01/09 02:01:44;;;;;;;1.77;1.67;;;;;;;5.49;100.00;94866.09;5081438;28;20068;-60
2023/01/09 02:04:10;;;;;;;1.75;1.73;;;;;;;5.45;100.00;94874.19;5085614;28;20050;-60
2023/01/09 02:06:36;;;;;;;2.25;1.50;;;;;;;5.43;100.00;94881.34;5090562;28;20039;-59
2023/01/09 02:09:03;;;;;;;1.88;1.77;;;;;;;5.40;100.00;94886.78;5083382;28;20036;-68
2023/01/09 02:11:29;;;;;;;2.83;2.58;;;;;;;5.37;100.00;94879.22;5081942;28;20240;-67
2023/01/09 02:13:56;;;;;;;2.53;2.33;;;;;;;5.34;100.00;94882.09;5083993;28;20059;-67
2023/01/09 02:16:22;;;;;;;4.40;1.90;;;;;;;5.35;100.00;94886.34;5079127;28;20068;-67
2023/01/09 02:19:24;;;;;;;1.63;1.52;;;;;;;5.42;100.00;94884.91;5085783;28;20059;-67
2023/01/09 02:22:08;;;;;;;1.85;1.75;;;;;;;5.33;100.00;94901.31;5076030;28;20043;-67
2023/01/09 02:25:11;;;;;;;2.05;1.85;;;;;;;5.23;100.00;94905.69;5085156;28;20032;-61
2023/01/09 02:27:51;;;;;;;1.83;1.73;;;;;;;5.21;100.00;94925.84;5082741;28;20032;-62
2023/01/09 02:30:30;;;;;;;2.08;1.55;;;;;;;5.19;100.00;94922.53;5081816;28;20044;-62
2023/01/09 02:33:18;;;;;;;1.60;1.50;;;;;;;5.13;100.00;94931.72;5087251;28;20067;-61
2023/01/09 02:36:04;;;;;;;3.45;1.70;;;;;;;5.27;100.00;94931.38;5082398;28;20127;-62
2023/01/09 02:38:30;;;;;;;15.98;9.02;;;;;;;5.27;100.00;94930.56;5087513;28;20036;-61
2023/01/09 02:41:03;;;;;;;9.75;6.82;;;;;;;5.19;100.00;94940.78;5091496;28;20028;-62
2023/01/09 02:43:31;;;;;;;5.75;4.43;;;;;;;5.15;100.00;94951.47;5088011;28;20040;-61
2023/01/09 02:45:56;;;;;;;4.97;3.65;;;;;;;5.12;100.00;94943.09;5091609;28;20035;-59
2023/01/09 02:48:22;;;;;;;7.50;4.30;;;;;;;5.07;100.00;94929.59;5090492;28;20032;-60
2023/01/09 02:50:47;;;;;;;4.78;3.70;;;;;;;5.05;100.00;94937.56;5085357;28;20548;-60
2023/01/09 02:53:27;;;;;;;4.10;3.55;;;;;;;5.03;100.00;94931.63;5091072;28;20089;-60
2023/01/09 02:56:21;;;;;;;2.40;2.00;;;;;;;4.98;100.00;94925.97;5093214;28;20177;-60
2023/01/09 02:59:04;;;;;;;2.38;2.17;;;;;;;5.18;100.00;94931.31;5075161;28;20036;-60
2023/01/09 03:01:51;;;;;;;1.67;1.58;;;;;;;5.09;100.00;94928.50;5079554;28;20486;-60
2023/01/09 03:04:21;;;;;;;1.80;1.70;;;;;;;4.94;100.00;94922.78;5084514;28;20554;-61
2023/01/09 03:07:06;;;;;;;1.90;1.80;;;;;;;5.08;100.00;94931.22;5088214;28;20141;-61
2023/01/09 03:09:35;;;;;;;2.10;2.00;;;;;;;5.06;100.00;94923.56;5090228;28;20044;-60
2023/01/09 03:12:17;;;;;;;6.60;3.50;;;;;;;4.92;100.00;94916.88;5091667;28;20047;-60
2023/01/09 03:14:50;;;;;;;2.25;2.13;;;;;;;4.85;100.00;94916.53;5092120;28;20493;-60
2023/01/09 03:17:52;;;;;;;8.48;2.00;;;;;;;4.83;100.00;94934.09;5091795;28;20506;-60
2023/01/09 03:20:22;;;;;;;1.83;1.70;;;;;;;4.82;100.00;94935.06;5073576;28;20032;-60
2023/01/09 03:22:56;;;;;;;2.95;2.10;;;;;;;4.80;100.00;94931.75;5096812;28;20048;-60
2023/01/09 03:25:23;;;;;;;3.28;2.50;;;;;;;4.83;100.00;94944.53;5086235;28;20398;-67
2023/01/09 03:27:54;;;;;;;3.28;2.33;;;;;;;4.80;100.00;94934.34;5083447;28;20028;-67
2023/01/09 03:30:19;;;;;;;2.20;2.03;;;;;;;4.74;100.00;94929.59;5087900;28;20103;-67
2023/01/09 03:32:45;;;;;;;2.17;2.08;;;;;;;4.71;100.00;94916.81;5090434;28;20120;-67
2023/01/09 03:35:10;;;;;;;2.08;1.88;;;;;;;4.69;100.00;94931.78;5082418;28;20071;-67
2023/01/09 03:37:35;;;;;;;2.20;2.10;;;;;;;4.68;100.00;94932.72;5084762;28;20040;-66
2023/01/09 03:40:01;;;;;;;3.78;2.42;;;;;;;4.66;100.00;94929.41;5084513;28;20043;-67
2023/01/09 03:42:26;;;;;;;4.50;2.30;;;;;;;4.77;100.00;94925.94;5088271;28;20113;-62
2023/01/09 03:44:51;;;;;;;2.17;2.03;;;;;;;4.77;100.00;94934.59;5085844;28;20096;-60
2023/01/09 03:47:17;;;;;;;2.80;2.47;;;;;;;4.70;100.00;94936.03;5088037;28;20024;-61
2023/01/09 03:49:42;;;;;;;2.25;2.15;;;;;;;4.69;100.00;94939.59;5081393;28;20059;-60
2023/01/09 03:52:07;;;;;;;3.15;2.25;;;;;;;4.69;100.00;94948.25;5089200;28;20559;-60
2023/01/09 03:54:33;;;;;;;1.95;1.83;;;;;;;4.67;100.00;94944.09;5082060;28;20501;-60
2023/01/09 03:56:58;;;;;;;2.80;1.80;;;;;;;4.68;100.00;94940.56;5089603;28;20054;-60
2023/01/09 03:59:24;;;;;;;2.20;2.00;;;;;;;4.80;100.00;94942.16;5090420;28;20048;-60
2023/01/09 04:01:50;;;;;;;2.55;1.75;;;;;;;4.88;100.00;94960.63;5082646;28;20040;-64
2023/01/09 04:04:15;;;;;;;3.03;1.38;;;;;;;4.79;100.00;94957.94;5086494;28;20102;-67
2023/01/09 04:06:41;;;;;;;1.55;1.55;;;;;;;4.76;100.00;94966.84;5083536;28;20036;-68
2023/01/09 04:09:06;;;;;;;3.17;1.52;;;;;;;4.68;100.00;94967.47;5079555;28;20031;-67
2023/01/09 04:11:31;;;;;;;1.40;1.40;;;;;;;4.56;100.00;94973.66;5086918;28;20028;-67
2023/01/09 04:13:57;;;;;;;1.73;1.63;;;;;;;4.58;100.00;94988.22;5081979;28;20039;-67
2023/01/09 04:16:22;;;;;;;4.95;2.47;;;;;;;4.66;100.00;94986.78;5085010;28;20052;-67
2023/01/09 04:18:47;;;;;;;1.42;1.40;;;;;;;4.68;100.00;95001.38;5086080;28;20036;-67
2023/01/09 04:21:13;;;;;;;1.40;1.30;;;;;;;4.59;100.00;95000.31;5085733;28;20028;-67
2023/01/09 04:23:38;;;;;;;2.03;1.92;;;;;;;4.53;100.00;95008.63;5087976;28;20036;-66
2023/01/09 04:26:04;;;;;;;3.40;1.70;;;;;;;4.54;100.00;95015.50;5083018;28;20398;-66
2023/01/09 04:28:30;;;;;;;1.77;1.65;;;;;;;4.49;100.00;95022.03;5091660;28;20044;-67
2023/01/09 04:30:55;;;;;;;3.85;3.50;;;;;;;4.51;100.00;95027.94;5086464;28;20177;-67
2023/01/09 04:33:20;;;;;;;2.65;2.45;;;;;;;4.41;100.00;95033.84;5082002;28;20036;-67
2023/01/09 04:35:46;;;;;;;3.10;1.45;;;;;;;4.38;100.00;95022.88;5083952;28;20039;-67
2023/01/09 04:38:11;;;;;;;2.10;2.00;;;;;;;4.31;100.00;95017.31;5081903;28;20027;-67
2023/01/09 04:40:36;;;;;;;2.42;2.28;;;;;;;4.29;100.00;95030.44;5084502;28;20392;-59
2023/01/09 04:43:02;;;;;;;2.80;2.15;;;;;;;4.58;100.00;95035.16;5083320;28;20444;-61
2023/01/09 04:45:27;;;;;;;2.03;1.80;;;;;;;4.87;100.00;95036.41;5090056;28;20032;-62
2023/01/09 04:47:52;;;;;;;1.90;1.60;;;;;;;4.55;100.00;95045.84;5084239;28;20509;-62
2023/01/09 04:50:18;;;;;;;1.85;1.52;;;;;;;4.52;100.00;95051.25;5083356;28;20028;-61
2023/01/09 04:52:43;;;;;;;1.60;1.50;;;;;;;4.55;100.00;95048.44;5078036;28;20032;-62
2023/01/09 04:55:09;;;;;;;1.80;1.20;;;;;;;4.60;100.00;95050.66;5090338;28;20036;-61
2023/01/09 04:57:35;;;;;;;1.25;1.25;;;;;;;4.42;100.00;95042.53;5075251;28;20035;-62
2023/01/09 05:00:01;;;;;;;1.60;1.50;;;;;;;4.18;100.00;95053.91;5089694;28;20554;-67
2023/01/09 05:02:26;;;;;;;1.50;1.40;;;;;;;4.11;100.00;95061.34;5089956;28;20127;-67
2023/01/09 05:04:52;;;;;;;1.63;1.40;;;;;;;4.05;100.00;95074.88;5090547;28;20039;-67
2023/01/09 05:07:17;;;;;;;1.50;1.40;;;;;;;4.28;100.00;95078.28;5089226;28;20513;-67
2023/01/09 05:09:43;;;;;;;1.10;1.10;;;;;;;4.23;100.00;95075.22;5090196;28;20662;-69
2023/01/09 05:12:09;;;;;;;1.50;1.50;;;;;;;4.27;100.00;95079.25;5088259;28;20465;-68
2023/01/09 05:14:34;;;;;;;3.53;1.70;;;;;;;3.95;100.00;95079.94;5095965;28;20099;-67
2023/01/09 05:16:59;;;;;;;1.52;1.40;;;;;;;3.83;100.00;95081.69;5089272;28;20055;-68
2023/01/09 05:19:25;;;;;;;1.50;1.50;;;;;;;3.72;100.00;95090.31;5093783;28;20502;-61
2023/01/09 05:21:50;;;;;;;2.30;1.65;;;;;;;3.96;100.00;95086.81;5087300;28;20032;-61
2023/01/09 05:24:15;;;;;;;1.10;1.10;;;;;;;3.99;100.00;95090.97;5081893;28;20071;-60
2023/01/09 05:26:41;;;;;;;1.60;1.50;;;;;;;3.77;100.00;95102.16;5070783;28;20494;-61
2023/01/09 05:29:06;;;;;;;4.72;2.20;;;;;;;3.64;100.00;95107.44;5070696;28;20530;-60
2023/01/09 05:31:31;;;;;;;2.13;1.92;;;;;;;3.59;100.00;95110.38;5070682;28;20039;-60
2023/01/09 05:33:59;;;;;;;1.80;1.70;;;;;;;3.60;100.00;95125.06;5082937;28;20106;-60
2023/01/09 05:36:25;;;;;;;2.95;2.75;;;;;;;3.64;100.00;95116.06;5069783;28;20094;-67
2023/01/09 05:38:50;;;;;;;2.65;2.45;;;;;;;3.66;100.00;95118.56;5077147;28;20031;-62
2023/01/09 05:41:15;;;;;;;5.40;4.25;;;;;;;3.69;100.00;95132.19;5089245;28;20477;-61
2023/01/09 05:43:41;;;;;;;2.28;2.10;;;;;;;3.73;100.00;95125.81;5089605;28;20485;-62
2023/01/09 05:46:06;;;;;;;1.65;1.55;;;;;;;3.80;100.00;95127.97;5089310;28;20409;-63
2023/01/09 05:48:31;;;;;;;1.92;1.80;;;;;;;3.87;100.00;95135.19;5089700;28;20097;-62
2023/01/09 05:50:57;;;;;;;1.77;1.67;;;;;;;3.77;100.00;95138.59;5088684;28;20455;-62
2023/01/09 05:53:22;;;;;;;4.18;1.90;;;;;;;3.77;100.00;95139.44;5089401;28;20421;-62
2023/01/09 05:55:47;;;;;;;2.72;1.80;;;;;;;3.66;100.00;95140.25;5088691;28;20077;-69
2023/01/09 05:58:13;;;;;;;1.92;1.83;;;;;;;3.63;100.00;95147.44;5089450;28;20110;-61
2023/01/09 06:00:38;;;;;;;3.58;2.50;;;;;;;3.56;100.00;95149.66;5084239;28;20060;-60
2023/01/09 06:03:03;;;;;;;3.20;2.85;;;;;;;3.50;100.00;95150.94;5084882;28;20051;-60
2023/01/09 06:05:29;;;;;;;4.00;3.70;;;;;;;3.47;100.00;95158.97;5081358;28;20044;-60
2023/01/09 06:07:54;;;;;;;18.10;10.35;;;;;;;3.43;100.00;95155.78;5084026;28;20477;-61
2023/01/09 06:10:19;;;;;;;48.45;25.63;;;;;;;3.43;100.00;95155.78;5072232;28;20055;-61
2023/01/09 06:12:50;;;;;;;3.75;2.97;;;;;;;3.44;100.00;95162.63;5083363;28;20036;-60
2023/01/09 06:15:16;;;;;;;2.72;2.33;;;;;;;3.46;100.00;95151.28;5081652;28;20060;-61
2023/01/09 06:17:42;;;;;;;3.85;3.22;;;;;;;3.44;100.00;95153.97;5086750;28;20390;-62
2023/01/09 06:20:08;;;;;;;6.75;4.22;;;;;;;3.42;100.00;95153.25;5086083;28;20028;-64
2023/01/09 06:22:33;;;;;;;4.13;3.72;;;;;;;3.40;100.00;95153.38;5089056;28;20024;-65
2023/01/09 06:24:58;;;;;;;6.32;5.68;;;;;;;3.39;100.00;95162.13;5075868;28;20613;-65
2023/01/09 06:27:24;;;;;;;7.32;5.78;;;;;;;3.40;100.00;95160.34;5070077;28;20521;-64
2023/01/09 06:29:49;;;;;;;6.45;5.85;;;;;;;3.45;100.00;95171.25;5079968;28;20129;-63
2023/01/09 06:32:15;;;;;;;6.55;5.95;;;;;;;3.54;100.00;95174.97;5084853;28;20474;-63
2023/01/09 06:34:40;;;;;;;5.85;4.85;;;;;;;3.56;100.00;95178.28;5087251;28;20040;-63
2023/01/09 06:37:06;;;;;;;7.28;6.57;;;;;;;3.56;100.00;95170.47;5084484;28;20044;-67
2023/01/09 06:39:31;;;;;;;7.85;7.05;;;;;;;3.55;100.00;95181.84;5087034;28;20036;-68
2023/01/09 06:41:56;;;;;;;19.40;16.15;;;;;;;3.57;100.00;95188.59;5082902;28;20082;-67
2023/01/09 06:44:22;;;;;;;22.52;17.45;;;;;;;3.60;100.00;95187.53;5087235;28;20098;-67
2023/01/09 06:46:47;;;;;;;16.17;10.02;;;;;;;3.61;100.00;95180.56;5079988;28;20116;-66
2023/01/09 06:49:12;;;;;;;10.52;8.65;;;;;;;3.60;100.00;95187.53;5081067;28;20039;-66
2023/01/09 06:51:38;;;;;;;17.65;12.82;;;;;;;3.56;100.00;95191.31;5070160;28;20079;-68
2023/01/09 06:54:03;;;;;;;13.85;10.60;;;;;;;3.54;100.00;95194.03;5081974;28;20461;-70
2023/01/09 06:56:28;;;;;;;14.35;11.23;;;;;;;3.52;100.00;95203.69;5074739;28;20068;-67
2023/01/09 06:58:54;;;;;;;11.70;9.50;;;;;;;3.53;100.00;95197.56;5078694;28;20024;-65
2023/01/09 07:01:20;;;;;;;9.02;8.13;;;;;;;3.50;100.00;95215.19;5069197;28;20102;-65
2023/01/09 07:03:45;;;;;;;9.13;8.23;;;;;;;3.46;100.00;95211.13;5082360;28;20032;-64
2023/01/09 07:06:11;;;;;;;11.68;9.30;;;;;;;3.63;100.00;95215.94;5080308;28;20052;-63
2023/01/09 07:08:36;;;;;;;8.95;7.63;;;;;;;3.57;100.00;95217.25;5076400;28;20036;-63
2023/01/09 07:11:01;;;;;;;7.20;6.50;;;;;;;3.55;100.00;95213.06;5079652;28;20079;-64
2023/01/09 07:13:27;;;;;;;6.97;6.38;;;;;;;3.41;100.00;95216.66;5081337;28;20036;-69
2023/01/09 07:15:52;;;;;;;6.97;6.38;;;;;;;3.36;100.00;95223.97;5086168;28;20105;-61
2023/01/09 07:18:18;;;;;;;8.18;7.30;;;;;;;3.35;100.00;95223.13;5081838;28;20127;-60
2023/01/09 07:20:44;;;;;;;7.40;6.80;;;;;;;3.34;100.00;95223.25;5080283;28;20044;-60
2023/01/09 07:23:13;;;;;;;9.65;6.53;;;;;;;3.31;100.00;95226.91;5063073;28;20035;-60
2023/01/09 07:25:40;;;;;;;28.75;13.57;;;;;;;3.30;100.00;95223.44;5085090;28;20055;-60
2023/01/09 07:28:06;;;;;;;29.92;15.10;;;;;;;3.31;100.00;95213.88;5089729;28;20040;-60
2023/01/09 07:30:32;;;;;;;27.45;10.63;;;;;;;3.28;100.00;95221.91;5086926;28;20020;-61
2023/01/09 07:32:57;;;;;;;33.20;16.88;;;;;;;3.26;100.00;95224.59;5089055;28;20032;-68
2023/01/09 07:35:23;;;;;;;54.13;16.60;;;;;;;3.24;100.00;95212.66;5084468;28;20039;-68
2023/01/09 07:37:48;;;;;;;16.50;7.55;;;;;;;3.34;100.00;95215.44;5088236;28;20071;-65
2023/01/09 07:40:13;;;;;;;15.18;7.93;;;;;;;3.40;100.00;95215.00;5085849;28;20052;-66
2023/01/09 07:42:39;;;;;;;19.73;10.82;;;;;;;3.28;100.00;95227.94;5086812;28;20520;-66
2023/01/09 07:45:05;;;;;;;17.25;12.07;;;;;;;3.24;100.00;95228.28;5084424;28;20126;-66
2023/01/09 07:47:30;;;;;;;17.60;11.77;;;;;;;3.23;100.00;95237.03;5076794;28;20074;-66
2023/01/09 07:49:56;;;;;;;16.92;13.27;;;;;;;3.15;100.00;95238.38;5088300;28;20035;-66
2023/01/09 07:52:21;;;;;;;19.17;13.68;;;;;;;3.09;100.00;95232.75;5088059;28;20032;-61
2023/01/09 07:54:47;;;;;;;17.55;13.82;;;;;;;3.02;100.00;95245.38;5084846;28;20036;-64
2023/01/09 07:57:12;;;;;;;19.13;14.00;;;;;;;2.96;100.00;95249.25;5086498;28;20032;-61
2023/01/09 07:59:37;;;;;;;19.10;13.50;;;;;;;2.93;100.00;95248.59;5074823;28;20036;-61
2023/01/09 08:02:04;;;;;;;24.30;14.80;;;;;;;2.90;100.00;95249.66;5073100;28;20090;-62
2023/01/09 08:04:30;;;;;;;12.55;8.82;;;;;;;2.85;100.00;95247.38;5085962;28;20028;-61
2023/01/09 08:06:55;;;;;;;9.48;6.53;;;;;;;2.81;100.00;95239.88;5074729;28;20120;-61
2023/01/09 08:09:21;;;;;;;9.10;6.32;;;;;;;2.78;100.00;95246.16;5083599;28;20485;-61
2023/01/09 08:11:46;;;;;;;5.22;4.55;;;;;;;2.79;100.00;95244.38;5078733;28;20063;-62
2023/01/09 08:14:12;;;;;;;4.38;3.97;;;;;;;2.84;100.00;95252.66;5083011;28;20059;-66
2023/01/09 08:16:37;;;;;;;4.68;2.83;;;;;;;2.93;100.00;95259.00;5078104;28;20035;-66
2023/01/09 08:19:02;;;;;;;5.38;2.90;;;;;;;3.00;100.00;95258.50;5087927;28;20061;-66
2023/01/09 08:21:28;;;;;;;7.13;5.20;;;;;;;3.09;100.00;95257.03;5089699;28;20028;-65
2023/01/09 08:23:53;;;;;;;4.60;3.35;;;;;;;3.12;100.00;95264.59;5087547;28;20028;-66
2023/01/09 08:26:18;;;;;;;5.68;5.03;;;;;;;3.17;100.00;95261.69;5087881;28;20035;-66
2023/01/09 08:28:44;;;;;;;6.32;5.60;;;;;;;3.26;100.00;95265.44;5070123;28;20054;-66
2023/01/09 08:31:10;;;;;;;10.75;6.90;;;;;;;3.33;100.00;95260.63;5088079;28;20509;-68
2023/01/09 08:33:35;;;;;;;9.07;6.28;;;;;;;3.39;100.00;95266.22;5084449;28;20054;-67
2023/01/09 08:36:00;;;;;;;16.90;6.40;;;;;;;3.55;100.00;95267.72;5074869;28;20057;-66
2023/01/09 08:38:26;;;;;;;16.98;5.10;;;;;;;3.69;100.00;95267.59;5065125;28;20029;-65
2023/01/09 08:40:51;;;;;;;14.55;5.32;;;;;;;3.77;100.00;95268.81;5075096;28;20028;-66
2023/01/09 08:48:44;;;;;;;15.30;4.93;;;;;;;3.92;100.00;95264.25;5072486;28;20753;-66
2023/01/09 08:51:10;;;;;;;7.72;5.78;;;;;;;4.04;100.00;95258.16;5083363;28;20027;-61
2023/01/09 08:53:36;;;;;;;6.53;4.88;;;;;;;4.01;100.00;95250.56;5076418;28;20060;-69
2023/01/09 08:56:02;;;;;;;7.63;4.10;;;;;;;4.01;100.00;95235.75;5078550;28;20109;-68
2023/01/09 08:58:28;;;;;;;6.25;4.40;;;;;;;4.03;100.00;95229.59;5080551;28;20509;-69
2023/01/09 09:00:54;;;;;;;8.88;4.45;;;;;;;3.99;100.00;95222.03;5079127;28;20044;-69
2023/01/09 09:03:20;;;;;;;4.63;3.88;;;;;;;3.95;100.00;95232.78;5080378;28;20425;-68
2023/01/09 09:05:46;;;;;;;4.85;4.45;;;;;;;3.95;100.00;95233.63;5070782;28;20174;-68
2023/01/09 09:08:11;;;;;;;4.78;4.38;;;;;;;3.94;100.00;95226.75;5075845;28;20122;-68
2023/01/09 09:10:37;;;;;;;7.13;5.43;;;;;;;3.87;100.00;95228.97;5080135;28;20081;-63
2023/01/09 09:13:02;;;;;;;6.00;5.25;;;;;;;3.82;100.00;95230.22;5083441;28;20047;-68
2023/01/09 09:15:28;;;;;;;9.55;8.65;;;;;;;3.97;100.00;95234.34;5069518;28;20079;-68
2023/01/09 09:17:58;;;;;;;5.85;4.20;;;;;;;3.91;100.00;95226.97;5078617;28;20058;-68
2023/01/09 09:20:28;;;;;;;12.73;9.70;;;;;;;3.71;100.00;95228.41;5076051;28;20474;-68
2023/01/09 09:22:54;;;;;;;13.23;8.25;;;;;;;3.84;100.00;95239.59;5087352;28;20097;-68
2023/01/09 09:25:19;;;;;;;9.88;7.38;;;;;;;3.85;100.00;95249.06;5087798;28;20036;-68
2023/01/09 09:27:45;;;;;;;14.02;6.75;;;;;;;3.79;100.00;95259.09;5088400;28;20063;-61
2023/01/09 09:30:12;;;;;;;10.68;5.97;;;;;;;3.67;100.00;95269.47;5085291;28;20103;-61
2023/01/09 09:32:38;;;;;;;17.27;6.00;;;;;;;3.70;100.00;95277.06;5077603;28;20082;-61
2023/01/09 09:35:04;;;;;;;8.88;6.53;;;;;;;4.19;100.00;95290.06;5080766;28;20040;-62
2023/01/09 09:37:29;;;;;;;7.28;6.32;;;;;;;4.23;100.00;95288.91;5084564;28;20577;-62
2023/01/09 09:39:54;;;;;;;10.65;6.75;;;;;;;4.18;100.00;95295.38;5083135;28;20040;-61
2023/01/09 09:46:01;;;;;;;9.18;6.53;;;;;;;3.97;100.00;95286.44;5085870;28;20738;-62
2023/01/09 09:48:34;;;;;;;7.38;5.85;;;;;;;4.04;100.00;95296.38;5082148;28;20085;-61
2023/01/09 09:51:42;;;;;;;18.27;15.77;;;;;;;4.08;100.00;95292.63;5084196;28;20408;-61
2023/01/09 09:54:18;;;;;;;10.73;9.00;;;;;;;4.10;100.00;95298.56;5075836;28;20036;-61
2023/01/09 09:56:54;;;;;;;5.20;4.53;;;;;;;4.10;100.00;95301.19;5076087;28;20036;-61
2023/01/09 09:59:32;;;;;;;5.30;3.70;;;;;;;4.12;100.00;95302.72;5078059;28;20039;-61
2023/01/09 10:02:11;;;;;;;5.05;4.15;;;;;;;4.21;100.00;95303.81;5084853;28;20055;-61
2023/01/09 10:04:41;;;;;;;9.05;5.45;;;;;;;4.35;100.00;95310.63;5068398;28;20040;-61
2023/01/09 10:07:19;;;;;;;7.18;4.32;;;;;;;4.54;100.00;95304.91;5081398;28;20028;-66
2023/01/09 10:09:53;;;;;;;7.90;5.43;;;;;;;4.63;100.00;95300.75;5068291;28;20043;-63
2023/01/09 10:12:27;;;;;;;9.43;5.85;;;;;;;4.71;100.00;95301.00;5067899;28;20036;-63
2023/01/09 10:14:58;;;;;;;7.38;5.93;;;;;;;4.86;100.00;95308.59;5068259;28;20112;-63
2023/01/09 10:17:39;;;;;;;8.18;5.78;;;;;;;4.82;100.00;95302.81;5067506;28;20037;-63
2023/01/09 10:20:42;;;;;;;8.75;6.70;;;;;;;4.73;100.00;95298.28;5080283;28;20109;-63
2023/01/09 10:23:07;;;;;;;11.10;6.68;;;;;;;4.65;100.00;95295.44;5078889;28;20043;-63
2023/01/09 10:25:45;;;;;;;15.07;13.43;;;;;;;4.68;100.00;95301.25;5063697;28;20036;-68
2023/01/09 10:28:13;;;;;;;8.52;7.68;;;;;;;4.74;100.00;95305.16;5074489;28;20072;-63
2023/01/09 10:30:44;;;;;;;7.47;6.18;;;;;;;4.75;100.00;95312.03;5067879;28;20111;-68
2023/01/09 10:33:35;;;;;;;7.05;5.22;;;;;;;4.75;100.00;95295.56;5081421;28;20028;-68
2023/01/09 10:36:35;;;;;;;7.68;6.85;;;;;;;4.78;100.00;95295.31;5083636;28;20654;-68
2023/01/09 10:39:07;;;;;;;9.40;8.50;;;;;;;4.81;100.00;95289.88;5083394;28;20044;-68
2023/01/09 10:41:57;;;;;;;7.18;6.45;;;;;;;4.80;100.00;95278.63;5076318;28;20028;-68
2023/01/09 10:44:35;;;;;;;5.57;5.00;;;;;;;4.86;100.00;95288.59;5080936;28;20040;-63
2023/01/09 10:47:09;;;;;;;9.18;5.13;;;;;;;4.89;100.00;95292.75;5076203;28;20605;-68
2023/01/09 10:49:37;;;;;;;7.78;5.85;;;;;;;4.88;100.00;95291.91;5084210;28;20029;-64
2023/01/09 10:52:09;;;;;;;6.65;5.18;;;;;;;4.79;100.00;95294.38;5078624;28;20038;-63
2023/01/09 10:54:40;;;;;;;6.93;4.85;;;;;;;4.90;100.00;95298.78;5077946;28;20028;-64
2023/01/09 10:57:12;;;;;;;4.85;4.00;;;;;;;5.18;100.00;95297.50;5077128;28;20054;-63
2023/01/09 10:59:39;;;;;;;6.25;5.28;;;;;;;4.97;100.00;95315.63;5085359;28;20112;-63
2023/01/09 11:02:12;;;;;;;13.73;11.40;;;;;;;5.19;100.00;95307.00;5087474;28;20036;-63
2023/01/09 11:04:38;;;;;;;7.47;5.55;;;;;;;5.08;100.00;95305.22;5081283;28;20047;-61
2023/01/09 11:07:11;;;;;;;4.22;3.65;;;;;;;4.94;100.00;95313.25;5089117;28;20410;-61
2023/01/09 11:10:02;;;;;;;6.43;4.32;;;;;;;4.96;100.00;95306.13;5090259;28;20085;-64
2023/01/09 11:12:30;;;;;;;4.35;3.83;;;;;;;4.91;100.00;95313.47;5078596;28;20111;-64
2023/01/09 11:15:18;;;;;;;9.00;7.78;;;;;;;5.11;100.00;95304.97;5104250;28;20031;-64
2023/01/09 11:17:44;;;;;;;6.38;4.75;;;;;;;5.08;100.00;95312.19;5080261;28;20042;-64
2023/01/09 11:20:21;;;;;;;3.80;2.45;;;;;;;5.04;100.00;95309.00;5084783;28;20028;-64
2023/01/09 11:22:49;;;;;;;6.93;3.60;;;;;;;5.12;100.00;95324.91;5091590;28;20032;-62
2023/01/09 11:25:17;;;;;;;4.72;3.53;;;;;;;5.15;96.02;95327.28;5092186;28;20111;-64
2023/01/09 11:27:42;;;;;;;4.75;3.78;;;;;;;5.13;96.37;95326.56;5093971;28;20115;-69
2023/01/09 11:30:07;;;;;;;4.85;3.38;;;;;;;4.99;96.31;95321.59;5090578;28;20111;-68
2023/01/09 11:32:34;;;;;;;5.57;4.00;;;;;;;4.84;98.92;95306.13;5084338;28;20036;-70
2023/01/09 11:34:59;;;;;;;5.88;3.83;;;;;;;4.78;100.00;95301.38;5075624;28;20115;-70
2023/01/09 11:37:28;;;;;;;6.15;3.55;;;;;;;4.83;100.00;95307.09;5090780;28;20589;-70
2023/01/09 11:39:56;;;;;;;5.95;4.40;;;;;;;4.90;100.00;95309.22;5090521;28;20024;-69
2023/01/09 11:45:17;;;;;;;8.13;5.00;;;;;;;5.04;100.00;95292.50;5086669;28;20101;-63
2023/01/09 11:47:42;;;;;;;3.45;2.30;;;;;;;5.09;100.00;95286.00;5088494;28;20044;-68
2023/01/09 11:50:23;;;;;;;2.92;2.72;;;;;;;5.12;100.00;95283.16;5084100;28;20032;-69
2023/01/09 11:53:12;;;;;;;2.92;2.25;;;;;;;5.14;100.00;95283.03;5088920;28;20582;-67
2023/01/09 11:55:38;;;;;;;9.93;8.90;;;;;;;5.32;98.85;95283.38;5088243;28;20052;-69
2023/01/09 11:58:04;;;;;;;4.93;4.35;;;;;;;5.43;99.23;95278.16;5088652;28;20111;-68
2023/01/09 12:00:35;;;;;;;6.85;6.13;;;;;;;5.54;100.00;95274.72;5086223;28;20103;-70
2023/01/09 12:03:10;;;;;;;7.10;5.22;;;;;;;5.61;100.00;95264.59;5089900;28;20038;-62
2023/01/09 12:05:54;;;;;;;9.25;8.15;;;;;;;5.79;100.00;95259.69;5078440;28;20055;-62
2023/01/09 12:08:28;;;;;;;6.68;5.60;;;;;;;5.81;100.00;95260.41;5086928;28;20058;-62
2023/01/09 12:11:28;;;;;;;5.10;3.78;;;;;;;5.84;100.00;95254.06;5086520;28;20058;-63
2023/01/09 12:14:22;;;;;;;6.55;2.78;;;;;;;5.91;100.00;95255.25;5084086;28;20040;-63
2023/01/09 12:17:09;;;;;;;3.25;2.72;;;;;;;5.87;100.00;95257.28;5081993;28;20036;-62
2023/01/09 12:19:43;;;;;;;5.57;4.80;;;;;;;5.68;99.33;95257.94;5085594;28;20103;-61
2023/01/09 12:22:45;;;;;;;7.28;3.67;;;;;;;5.62;98.71;95258.41;5086140;28;20647;-64
2023/01/09 12:25:29;;;;;;;3.28;2.67;;;;;;;5.66;98.56;95243.34;5086532;28;20124;-68
2023/01/09 12:28:02;;;;;;;2.70;2.50;;;;;;;5.47;100.00;95259.66;5087292;28;20028;-68
2023/01/09 12:30:48;;;;;;;2.58;2.38;;;;;;;5.26;99.76;95253.34;5087642;28;20024;-68
2023/01/09 12:33:28;;;;;;;3.33;2.50;;;;;;;5.36;96.37;95258.69;5088199;28;20110;-68
2023/01/09 12:36:24;;;;;;;5.78;2.65;;;;;;;5.44;97.00;95269.38;5087304;28;20067;-67
2023/01/09 12:38:57;;;;;;;4.78;2.58;;;;;;;5.24;94.95;95265.69;5078790;28;20429;-68
2023/01/09 12:41:49;;;;;;;2.92;2.60;;;;;;;4.97;94.91;95269.50;5089955;28;20051;-68
2023/01/09 12:44:31;;;;;;;4.60;2.35;;;;;;;5.23;93.38;95268.44;5091491;28;20046;-68
2023/01/09 12:47:25;;;;;;;4.15;2.38;;;;;;;4.96;93.96;95261.78;5084083;28;20033;-67
2023/01/09 12:49:54;;;;;;;7.22;2.92;;;;;;;4.80;96.04;95262.13;5088131;28;20048;-66
2023/01/09 12:52:30;;;;;;;6.32;3.22;;;;;;;4.93;94.94;95272.47;5083092;28;20437;-67
2023/01/09 12:55:13;;;;;;;20.35;3.20;;;;;;;5.03;93.50;95263.00;5082884;28;20024;-68
2023/01/09 12:57:47;;;;;;;11.75;3.10;;;;;;;4.84;94.60;95264.41;5076584;28;20103;-67
2023/01/09 13:00:40;;;;;;;6.53;2.92;;;;;;;5.02;90.38;95258.72;5090140;28;20028;-60
2023/01/09 13:03:27;;;;;;;3.05;2.60;;;;;;;4.73;95.73;95259.16;5074483;28;20031;-68
2023/01/09 13:05:56;;;;;;;6.97;3.00;;;;;;;4.83;93.12;95257.53;5075147;28;20448;-70
2023/01/09 13:08:35;;;;;;;7.15;3.88;;;;;;;4.68;97.52;95256.06;5079725;28;20416;-69
2023/01/09 13:11:07;;;;;;;5.05;2.70;;;;;;;4.70;95.86;95254.19;5079665;28;20024;-69
2023/01/09 13:13:51;;;;;;;3.33;2.75;;;;;;;4.56;97.24;95245.63;5076817;28;20036;-70
2023/01/09 13:16:23;;;;;;;5.65;3.22;;;;;;;4.51;99.64;95252.94;5077588;28;20486;-69
2023/01/09 13:18:56;;;;;;;10.25;6.32;;;;;;;4.54;100.00;95247.53;5055111;28;20097;-61
2023/01/09 13:21:22;;;;;;;8.18;6.40;;;;;;;4.56;100.00;95242.19;5070939;28;20042;-64
2023/01/09 13:24:08;;;;;;;6.22;5.57;;;;;;;4.64;100.00;95241.63;5084006;28;20094;-63
2023/01/09 13:26:44;;;;;;;5.03;4.50;;;;;;;4.69;100.00;95240.31;5072457;28;20796;-63
2023/01/09 13:29:12;;;;;;;;;;;;;;;4.68;100.00;95233.44;5080734;28;20397;-63
2023/01/09 13:31:46;;;;;;;5.70;3.22;;;;;;;4.65;100.00;95228.47;5083672;28;19907;-63
2023/01/09 13:34:21;;;;;;;3.67;2.60;;;;;;;4.60;100.00;95225.34;5084961;28;20028;-63